Crystal Cutler — WDF6034 — position and weather

sailwx.info

Track history (hours):
 
Tides and Currents Weather Stations Pressure Air Temp Water Temp Dewpoint Dewpoint Depression Visibility Wind Speed Wind Dir Waves Ship Positions

Crystal Cutler

Owner: Poling & Cutler Marine Transportation, LLC, East Brunswick, NJ. More information available from US FCC via Universal Licensing System and Coast Guard Vessel Documentation Center.

Last reported at 2017-Oct-20 02:38 UTC. Time now 2017-Oct-20 03:27 UTC.
Position N 40°35' W 074°13'.

Length 23 m.

Type: Towing. MMSI: 367469910.

Date/timePositionNaut miles runAvg speedWind from/ knotsBaromVisibWave heightAir tempDewpointWater temp
2017-Oct-20 02:38N 40°35' W 074°13'0 0.8
2017-Oct-20 02:13N 40°35' W 074°12'2 6.9
2017-Oct-20 01:59N 40°37' W 074°12'3 5.8
2017-Oct-20 01:30N 40°39' W 074°09'4 7.2
2017-Oct-20 01:00N 40°39' W 074°05'3 6.1
2017-Oct-20 00:30N 40°41' W 074°01'3 5.0
2017-Oct-20 00:00N 40°43' W 073°59'2 4.5
2017-Oct-19 23:30N 40°44' W 073°57'1 1.1
2017-Oct-19 22:52N 40°44' W 073°56'0 0.0
2017-Oct-19 22:19N 40°44' W 073°56'0 0.0
2017-Oct-19 21:43N 40°44' W 073°56'0 0.0
2017-Oct-19 21:25N 40°44' W 073°56'0 0.0
2017-Oct-19 20:55N 40°44' W 073°56'0 0.0
2017-Oct-19 20:01N 40°44' W 073°56'0 0.1
2017-Oct-19 19:58N 40°44' W 073°56'0 0.0
2017-Oct-19 19:22N 40°44' W 073°56'0 0.0
2017-Oct-19 18:58N 40°44' W 073°56'0 0.0
2017-Oct-19 18:28N 40°44' W 073°56'0 0.0
2017-Oct-19 17:55N 40°44' W 073°56'1 1.6
2017-Oct-19 17:30N 40°43' W 073°56'2 3.1
2017-Oct-19 17:00N 40°44' W 073°57'2 4.4
2017-Oct-19 16:31N 40°43' W 073°59'2 4.1
2017-Oct-19 16:01N 40°41' W 074°01'3 6.3
2017-Oct-19 15:31N 40°39' W 074°04'4 8.4
2017-Oct-19 15:00N 40°39' W 074°09'3 5.9
2017-Oct-19 14:29N 40°37' W 074°12'3 6.2
2017-Oct-19 13:55N 40°33' W 074°14'8 0.4
2017-Oct-18 17:19N 40°30' W 074°04'1 1.8
2017-Oct-18 16:30N 40°32' W 074°03'1 2.7
2017-Oct-18 16:00N 40°33' W 074°02'3 6.3
2017-Oct-18 15:30N 40°36' W 074°03'2 4.4
2017-Oct-18 14:58N 40°38' W 074°04'4 3.8
2017-Oct-18 14:00N 40°35' W 074°02'4 7.2
2017-Oct-18 13:24N 40°34' W 073°56'2 3.4
2017-Oct-18 12:56N 40°34' W 073°54'0 0.2
2017-Oct-18 12:20N 40°34' W 073°54'0 0.1
2017-Oct-18 11:59N 40°34' W 073°54'0 0.0
2017-Oct-18 11:11N 40°34' W 073°54'0 0.0
2017-Oct-18 10:59N 40°34' W 073°54'0 0.0
2017-Oct-18 08:50N 40°34' W 073°54'0 0.0
2017-Oct-18 08:29N 40°34' W 073°54'0 0.0
2017-Oct-18 06:59N 40°34' W 073°54'0 0.0
2017-Oct-18 06:29N 40°34' W 073°54'0 0.0
2017-Oct-18 05:53N 40°34' W 073°54'0 0.1
2017-Oct-18 05:23N 40°34' W 073°54'0 0.0
2017-Oct-18 04:26N 40°34' W 073°54'0 0.1
2017-Oct-18 03:59N 40°34' W 073°54'0 0.0
2017-Oct-18 03:29N 40°34' W 073°54'0 0.0
2017-Oct-18 02:56N 40°34' W 073°54'0 0.0
2017-Oct-18 01:53N 40°34' W 073°54'0 0.0
2017-Oct-18 01:20N 40°34' W 073°54'0 0.0
2017-Oct-18 00:38N 40°34' W 073°54'0 0.1
2017-Oct-18 00:20N 40°34' W 073°54'0 0.1
2017-Oct-17 23:59N 40°34' W 073°54'0 0.0
2017-Oct-17 23:29N 40°34' W 073°54'0 0.1
2017-Oct-17 20:47N 40°34' W 073°54'2 6.0
2017-Oct-17 20:28N 40°35' W 073°51'3 5.6
2017-Oct-17 20:00N 40°36' W 073°48'3 0.2
2017-Oct-17 05:55N 40°38' W 073°46'0 0.3
2017-Oct-17 05:26N 40°38' W 073°46'2 5.2
2017-Oct-17 04:58N 40°36' W 073°48'3 5.4
2017-Oct-17 04:28N 40°35' W 073°51'3 6.7
2017-Oct-17 04:00N 40°34' W 073°55'4 7.2
2017-Oct-17 03:30N 40°34' W 074°00'4 8.9
2017-Oct-17 03:00N 40°38' W 074°03'4 7.7
2017-Oct-17 02:30N 40°39' W 074°08'3 6.1
2017-Oct-17 02:00N 40°38' W 074°12'3 0.4
2017-Oct-16 18:48N 40°35' W 074°13'1 1.0
2017-Oct-16 17:19N 40°36' W 074°12'2 7.6
2017-Oct-16 17:00N 40°39' W 074°11'4 7.1
2017-Oct-16 16:30N 40°39' W 074°07'3 5.4
2017-Oct-16 16:00N 40°40' W 074°03'5 9.3
2017-Oct-16 15:30N 40°43' W 073°58'2 3.4
2017-Oct-16 14:55N 40°44' W 073°56'0 0.0
2017-Oct-16 13:59N 40°44' W 073°56'0 0.0
2017-Oct-16 13:29N 40°44' W 073°56'0 0.0
2017-Oct-16 12:59N 40°44' W 073°56'0 0.0
2017-Oct-16 12:14N 40°44' W 073°56'0 0.0
2017-Oct-16 11:56N 40°44' W 073°56'0 0.0
2017-Oct-16 11:26N 40°44' W 073°56'0 0.0
2017-Oct-16 10:50N 40°44' W 073°56'0 0.0
2017-Oct-16 10:29N 40°44' W 073°56'0 0.0
2017-Oct-16 09:59N 40°44' W 073°56'0 0.0
2017-Oct-16 08:29N 40°44' W 073°56'0 0.0
2017-Oct-16 07:59N 40°44' W 073°56'0 0.0
2017-Oct-16 07:26N 40°44' W 073°56'0 0.0
2017-Oct-16 06:50N 40°44' W 073°56'0 0.0
2017-Oct-16 06:29N 40°44' W 073°56'0 0.0
2017-Oct-16 05:44N 40°44' W 073°56'0 0.0
2017-Oct-16 05:29N 40°44' W 073°56'0 0.0
2017-Oct-16 04:53N 40°44' W 073°56'0 0.0
2017-Oct-16 04:29N 40°44' W 073°56'0 0.0
2017-Oct-16 03:59N 40°44' W 073°56'0 0.0
2017-Oct-16 03:29N 40°44' W 073°56'0 0.0
2017-Oct-16 02:59N 40°44' W 073°56'0 0.0
2017-Oct-16 02:29N 40°44' W 073°56'0 0.0
2017-Oct-16 01:59N 40°44' W 073°56'0 0.0
2017-Oct-16 01:23N 40°44' W 073°56'0 0.0
2017-Oct-16 00:59N 40°44' W 073°56'0 0.0
2017-Oct-16 00:26N 40°44' W 073°56'0 0.0
2017-Oct-15 23:59N 40°44' W 073°56'0 0.0
2017-Oct-15 22:02N 40°44' W 073°56'0 0.0
2017-Oct-15 21:32N 40°44' W 073°56'0 0.0
2017-Oct-15 21:11N 40°44' W 073°56'0 0.0
2017-Oct-15 18:26N 40°44' W 073°56'0 0.0
2017-Oct-15 17:59N 40°44' W 073°56'0 0.0
2017-Oct-15 17:05N 40°44' W 073°56'0 0.0
2017-Oct-15 16:41N 40°44' W 073°56'0 0.0
2017-Oct-15 16:08N 40°44' W 073°56'0 0.0
2017-Oct-15 15:56N 40°44' W 073°56'0 0.0
2017-Oct-15 15:23N 40°44' W 073°56'0 0.0
2017-Oct-15 13:53N 40°44' W 073°56'0 0.0
2017-Oct-15 13:29N 40°44' W 073°56'0 0.0
2017-Oct-15 12:38N 40°44' W 073°56'0 0.0
2017-Oct-15 12:26N 40°44' W 073°56'0 0.0
2017-Oct-15 11:47N 40°44' W 073°56'0 0.0
2017-Oct-15 11:29N 40°44' W 073°56'0 0.0
2017-Oct-15 10:59N 40°44' W 073°56'0 0.0
2017-Oct-15 10:26N 40°44' W 073°56'0 0.0
2017-Oct-15 09:59N 40°44' W 073°56'0 0.0
2017-Oct-15 09:29N 40°44' W 073°56'0 0.0
2017-Oct-15 08:59N 40°44' W 073°56'0 0.0
2017-Oct-15 08:29N 40°44' W 073°56'0 0.0
2017-Oct-15 07:59N 40°44' W 073°56'0 0.0
2017-Oct-15 07:20N 40°44' W 073°56'0 0.0
2017-Oct-15 06:56N 40°44' W 073°56'1 1.4
2017-Oct-15 06:30N 40°43' W 073°56'2 3.5
2017-Oct-15 06:00N 40°44' W 073°58'4 8.4
2017-Oct-15 05:30N 40°41' W 074°01'3 6.1
2017-Oct-15 05:00N 40°39' W 074°04'3 6.3
2017-Oct-15 04:30N 40°39' W 074°08'3 6.0
2017-Oct-15 04:00N 40°38' W 074°12'4 6.0
2017-Oct-15 03:16N 40°33' W 074°13'1 0.2
2017-Oct-14 19:32N 40°33' W 074°15'1 6.8
2017-Oct-14 19:25N 40°33' W 074°14'3 6.3
2017-Oct-14 19:00N 40°36' W 074°12'3 6.5
2017-Oct-14 18:30N 40°39' W 074°11'4 8.6
2017-Oct-14 18:00N 40°39' W 074°05'3 7.0
2017-Oct-14 17:30N 40°36' W 074°02'4 7.1
2017-Oct-14 16:57N 40°34' W 073°58'3 6.4
2017-Oct-14 16:30N 40°34' W 073°54'4 6.5
2017-Oct-14 15:57N 40°35' W 073°50'3 0.1
2017-Oct-13 15:06N 40°37' W 073°47'1 7.3
2017-Oct-13 14:58N 40°36' W 073°48'3 6.4
2017-Oct-13 14:29N 40°35' W 073°51'4 7.7
2017-Oct-13 14:00N 40°34' W 073°56'3 6.8
2017-Oct-13 13:30N 40°34' W 074°00'2 3.8
2017-Oct-13 12:59N 40°36' W 074°02'0 0.6
2017-Oct-13 12:29N 40°36' W 074°02'0 0.4
2017-Oct-13 11:59N 40°35' W 074°02'0 0.7
2017-Oct-13 11:26N 40°35' W 074°01'0 1.0
2017-Oct-13 10:59N 40°35' W 074°01'1 1.4
2017-Oct-13 10:28N 40°35' W 074°02'1 1.5
2017-Oct-13 09:58N 40°36' W 074°02'0 0.1
2017-Oct-13 09:29N 40°36' W 074°02'3 6.2
2017-Oct-13 09:00N 40°38' W 074°04'4 7.3
2017-Oct-13 08:29N 40°39' W 074°09'3 5.9
2017-Oct-13 08:00N 40°37' W 074°12'1 0.6
2017-Oct-13 05:56N 40°36' W 074°12'3 7.4
2017-Oct-13 05:30N 40°39' W 074°11'4 7.2
2017-Oct-13 05:00N 40°41' W 074°08'1 2.2
2017-Oct-13 04:28N 40°42' W 074°07'2 4.2
2017-Oct-13 04:00N 40°41' W 074°08'2 4.4
2017-Oct-13 03:30N 40°39' W 074°10'4 0.5
2017-Oct-12 19:27N 40°35' W 074°13'3 6.9
2017-Oct-12 19:00N 40°38' W 074°12'2 3.9
2017-Oct-12 18:30N 40°39' W 074°10'2 4.7
2017-Oct-12 18:00N 40°39' W 074°07'4 7.1
2017-Oct-12 17:30N 40°40' W 074°02'3 6.2
2017-Oct-12 17:00N 40°42' W 073°59'3 5.1
2017-Oct-12 16:30N 40°44' W 073°57'1 1.1
2017-Oct-12 15:47N 40°44' W 073°56'0 0.0
2017-Oct-12 15:17N 40°44' W 073°56'0 0.0
2017-Oct-12 14:56N 40°44' W 073°56'0 0.0
2017-Oct-12 14:28N 40°44' W 073°56'0 0.0
2017-Oct-12 13:53N 40°44' W 073°56'0 0.0
2017-Oct-12 13:20N 40°44' W 073°56'0 0.0
2017-Oct-12 12:58N 40°44' W 073°56'0 0.0
2017-Oct-12 12:23N 40°44' W 073°56'0 0.0
2017-Oct-12 11:50N 40°44' W 073°56'0 0.0
2017-Oct-12 11:25N 40°44' W 073°56'0 0.0
2017-Oct-12 10:49N 40°44' W 073°56'0 0.0
2017-Oct-12 10:19N 40°44' W 073°56'0 0.0
2017-Oct-12 09:56N 40°44' W 073°56'0 0.0
2017-Oct-12 09:26N 40°44' W 073°56'0 0.0
2017-Oct-12 08:55N 40°44' W 073°56'0 0.0
2017-Oct-12 08:20N 40°44' W 073°56'0 0.0
2017-Oct-12 07:55N 40°44' W 073°56'0 0.0
2017-Oct-12 06:31N 40°44' W 073°56'0 0.0
2017-Oct-12 04:44N 40°44' W 073°56'1 3.0
2017-Oct-12 04:30N 40°43' W 073°56'2 3.5
2017-Oct-12 04:00N 40°44' W 073°58'4 8.4
2017-Oct-12 03:30N 40°41' W 074°01'3 6.8
2017-Oct-12 03:00N 40°39' W 074°05'3 6.0
2017-Oct-12 02:29N 40°38' W 074°09'3 5.9
2017-Oct-12 02:00N 40°38' W 074°12'5 5.5
2017-Oct-12 01:03N 40°33' W 074°15'0 0.1
2017-Oct-11 22:20N 40°33' W 074°15'4 8.5
2017-Oct-11 21:50N 40°36' W 074°12'3 8.7
2017-Oct-11 21:30N 40°39' W 074°11'3 3.5
2017-Oct-11 20:39N 40°39' W 074°07'0 0.0
2017-Oct-11 20:30N 40°39' W 074°07'4 7.1
2017-Oct-11 20:00N 40°39' W 074°11'9 3.0
2017-Oct-11 16:51N 40°30' W 074°05'17 1.0
2017-Oct-11 00:00N 40°38' W 073°46'3 6.1
2017-Oct-10 23:28N 40°36' W 073°49'2 4.7
2017-Oct-10 23:00N 40°35' W 073°52'2 3.0
2017-Oct-10 22:21N 40°34' W 073°54'0 0.0
2017-Oct-10 21:54N 40°34' W 073°54'0 0.0
2017-Oct-10 21:21N 40°34' W 073°54'1 2.7
2017-Oct-10 20:58N 40°34' W 073°55'3 6.2
2017-Oct-10 20:30N 40°34' W 073°59'3 5.2
2017-Oct-10 20:00N 40°33' W 074°02'9 4.4
2017-Oct-10 17:53N 40°33' W 074°15'  
Track history (hours):
 
Tides and Currents Weather Stations Pressure Air Temp Water Temp Dewpoint Dewpoint Depression Visibility Wind Speed Wind Dir Waves Ship Positions

Crystal Cutler

Owner: Poling & Cutler Marine Transportation, LLC, East Brunswick, NJ. More information available from US FCC via Universal Licensing System and Coast Guard Vessel Documentation Center.

Last reported at 2017-Oct-20 02:38 UTC. Time now 2017-Oct-20 03:27 UTC.
Position N 40°35' W 074°13'.

Length 23 m.

Type: Towing. MMSI: 367469910.

Date/timePositionNaut miles runAvg speedWind from/ knotsBaromVisibWave heightAir tempDewpointWater temp
2017-Oct-20 02:38N 40°35' W 074°13'0 0.8
2017-Oct-20 02:13N 40°35' W 074°12'2 6.9
2017-Oct-20 01:59N 40°37' W 074°12'3 5.8
2017-Oct-20 01:30N 40°39' W 074°09'4 7.2
2017-Oct-20 01:00N 40°39' W 074°05'3 6.1
2017-Oct-20 00:30N 40°41' W 074°01'3 5.0
2017-Oct-20 00:00N 40°43' W 073°59'2 4.5
2017-Oct-19 23:30N 40°44' W 073°57'1 1.1
2017-Oct-19 22:52N 40°44' W 073°56'0 0.0
2017-Oct-19 22:19N 40°44' W 073°56'0 0.0
2017-Oct-19 21:43N 40°44' W 073°56'0 0.0
2017-Oct-19 21:25N 40°44' W 073°56'0 0.0
2017-Oct-19 20:55N 40°44' W 073°56'0 0.0
2017-Oct-19 20:01N 40°44' W 073°56'0 0.1
2017-Oct-19 19:58N 40°44' W 073°56'0 0.0
2017-Oct-19 19:22N 40°44' W 073°56'0 0.0
2017-Oct-19 18:58N 40°44' W 073°56'0 0.0
2017-Oct-19 18:28N 40°44' W 073°56'0 0.0
2017-Oct-19 17:55N 40°44' W 073°56'1 1.6
2017-Oct-19 17:30N 40°43' W 073°56'2 3.1
2017-Oct-19 17:00N 40°44' W 073°57'2 4.4
2017-Oct-19 16:31N 40°43' W 073°59'2 4.1
2017-Oct-19 16:01N 40°41' W 074°01'3 6.3
2017-Oct-19 15:31N 40°39' W 074°04'4 8.4
2017-Oct-19 15:00N 40°39' W 074°09'3 5.9
2017-Oct-19 14:29N 40°37' W 074°12'3 6.2
2017-Oct-19 13:55N 40°33' W 074°14'8 0.4
2017-Oct-18 17:19N 40°30' W 074°04'1 1.8
2017-Oct-18 16:30N 40°32' W 074°03'1 2.7
2017-Oct-18 16:00N 40°33' W 074°02'3 6.3
2017-Oct-18 15:30N 40°36' W 074°03'2 4.4
2017-Oct-18 14:58N 40°38' W 074°04'4 3.8
2017-Oct-18 14:00N 40°35' W 074°02'4 7.2
2017-Oct-18 13:24N 40°34' W 073°56'2 3.4
2017-Oct-18 12:56N 40°34' W 073°54'0 0.2
2017-Oct-18 12:20N 40°34' W 073°54'0 0.1
2017-Oct-18 11:59N 40°34' W 073°54'0 0.0
2017-Oct-18 11:11N 40°34' W 073°54'0 0.0
2017-Oct-18 10:59N 40°34' W 073°54'0 0.0
2017-Oct-18 08:50N 40°34' W 073°54'0 0.0
2017-Oct-18 08:29N 40°34' W 073°54'0 0.0
2017-Oct-18 06:59N 40°34' W 073°54'0 0.0
2017-Oct-18 06:29N 40°34' W 073°54'0 0.0
2017-Oct-18 05:53N 40°34' W 073°54'0 0.1
2017-Oct-18 05:23N 40°34' W 073°54'0 0.0
2017-Oct-18 04:26N 40°34' W 073°54'0 0.1
2017-Oct-18 03:59N 40°34' W 073°54'0 0.0
2017-Oct-18 03:29N 40°34' W 073°54'0 0.0
2017-Oct-18 02:56N 40°34' W 073°54'0 0.0
2017-Oct-18 01:53N 40°34' W 073°54'0 0.0
2017-Oct-18 01:20N 40°34' W 073°54'0 0.0
2017-Oct-18 00:38N 40°34' W 073°54'0 0.1
2017-Oct-18 00:20N 40°34' W 073°54'0 0.1
2017-Oct-17 23:59N 40°34' W 073°54'0 0.0
2017-Oct-17 23:29N 40°34' W 073°54'0 0.1
2017-Oct-17 20:47N 40°34' W 073°54'2 6.0
2017-Oct-17 20:28N 40°35' W 073°51'3 5.6
2017-Oct-17 20:00N 40°36' W 073°48'3 0.2
2017-Oct-17 05:55N 40°38' W 073°46'0 0.3
2017-Oct-17 05:26N 40°38' W 073°46'2 5.2
2017-Oct-17 04:58N 40°36' W 073°48'3 5.4
2017-Oct-17 04:28N 40°35' W 073°51'3 6.7
2017-Oct-17 04:00N 40°34' W 073°55'4 7.2
2017-Oct-17 03:30N 40°34' W 074°00'4 8.9
2017-Oct-17 03:00N 40°38' W 074°03'4 7.7
2017-Oct-17 02:30N 40°39' W 074°08'3 6.1
2017-Oct-17 02:00N 40°38' W 074°12'3 0.4
2017-Oct-16 18:48N 40°35' W 074°13'1 1.0
2017-Oct-16 17:19N 40°36' W 074°12'2 7.6
2017-Oct-16 17:00N 40°39' W 074°11'4 7.1
2017-Oct-16 16:30N 40°39' W 074°07'3 5.4
2017-Oct-16 16:00N 40°40' W 074°03'5 9.3
2017-Oct-16 15:30N 40°43' W 073°58'2 3.4
2017-Oct-16 14:55N 40°44' W 073°56'0 0.0
2017-Oct-16 13:59N 40°44' W 073°56'0 0.0
2017-Oct-16 13:29N 40°44' W 073°56'0 0.0
2017-Oct-16 12:59N 40°44' W 073°56'0 0.0
2017-Oct-16 12:14N 40°44' W 073°56'0 0.0
2017-Oct-16 11:56N 40°44' W 073°56'0 0.0
2017-Oct-16 11:26N 40°44' W 073°56'0 0.0
2017-Oct-16 10:50N 40°44' W 073°56'0 0.0
2017-Oct-16 10:29N 40°44' W 073°56'0 0.0
2017-Oct-16 09:59N 40°44' W 073°56'0 0.0
2017-Oct-16 08:29N 40°44' W 073°56'0 0.0
2017-Oct-16 07:59N 40°44' W 073°56'0 0.0
2017-Oct-16 07:26N 40°44' W 073°56'0 0.0
2017-Oct-16 06:50N 40°44' W 073°56'0 0.0
2017-Oct-16 06:29N 40°44' W 073°56'0 0.0
2017-Oct-16 05:44N 40°44' W 073°56'0 0.0
2017-Oct-16 05:29N 40°44' W 073°56'0 0.0
2017-Oct-16 04:53N 40°44' W 073°56'0 0.0
2017-Oct-16 04:29N 40°44' W 073°56'0 0.0
2017-Oct-16 03:59N 40°44' W 073°56'0 0.0
2017-Oct-16 03:29N 40°44' W 073°56'0 0.0
2017-Oct-16 02:59N 40°44' W 073°56'0 0.0
2017-Oct-16 02:29N 40°44' W 073°56'0 0.0
2017-Oct-16 01:59N 40°44' W 073°56'0 0.0
2017-Oct-16 01:23N 40°44' W 073°56'0 0.0
2017-Oct-16 00:59N 40°44' W 073°56'0 0.0
2017-Oct-16 00:26N 40°44' W 073°56'0 0.0
2017-Oct-15 23:59N 40°44' W 073°56'0 0.0
2017-Oct-15 22:02N 40°44' W 073°56'0 0.0
2017-Oct-15 21:32N 40°44' W 073°56'0 0.0
2017-Oct-15 21:11N 40°44' W 073°56'0 0.0
2017-Oct-15 18:26N 40°44' W 073°56'0 0.0
2017-Oct-15 17:59N 40°44' W 073°56'0 0.0
2017-Oct-15 17:05N 40°44' W 073°56'0 0.0
2017-Oct-15 16:41N 40°44' W 073°56'0 0.0
2017-Oct-15 16:08N 40°44' W 073°56'0 0.0
2017-Oct-15 15:56N 40°44' W 073°56'0 0.0
2017-Oct-15 15:23N 40°44' W 073°56'0 0.0
2017-Oct-15 13:53N 40°44' W 073°56'0 0.0
2017-Oct-15 13:29N 40°44' W 073°56'0 0.0
2017-Oct-15 12:38N 40°44' W 073°56'0 0.0
2017-Oct-15 12:26N 40°44' W 073°56'0 0.0
2017-Oct-15 11:47N 40°44' W 073°56'0 0.0
2017-Oct-15 11:29N 40°44' W 073°56'0 0.0
2017-Oct-15 10:59N 40°44' W 073°56'0 0.0
2017-Oct-15 10:26N 40°44' W 073°56'0 0.0
2017-Oct-15 09:59N 40°44' W 073°56'0 0.0
2017-Oct-15 09:29N 40°44' W 073°56'0 0.0
2017-Oct-15 08:59N 40°44' W 073°56'0 0.0
2017-Oct-15 08:29N 40°44' W 073°56'0 0.0
2017-Oct-15 07:59N 40°44' W 073°56'0 0.0
2017-Oct-15 07:20N 40°44' W 073°56'0 0.0
2017-Oct-15 06:56N 40°44' W 073°56'1 1.4
2017-Oct-15 06:30N 40°43' W 073°56'2 3.5
2017-Oct-15 06:00N 40°44' W 073°58'4 8.4
2017-Oct-15 05:30N 40°41' W 074°01'3 6.1
2017-Oct-15 05:00N 40°39' W 074°04'3 6.3
2017-Oct-15 04:30N 40°39' W 074°08'3 6.0
2017-Oct-15 04:00N 40°38' W 074°12'4 6.0
2017-Oct-15 03:16N 40°33' W 074°13'1 0.2
2017-Oct-14 19:32N 40°33' W 074°15'1 6.8
2017-Oct-14 19:25N 40°33' W 074°14'3 6.3
2017-Oct-14 19:00N 40°36' W 074°12'3 6.5
2017-Oct-14 18:30N 40°39' W 074°11'4 8.6
2017-Oct-14 18:00N 40°39' W 074°05'3 7.0
2017-Oct-14 17:30N 40°36' W 074°02'4 7.1
2017-Oct-14 16:57N 40°34' W 073°58'3 6.4
2017-Oct-14 16:30N 40°34' W 073°54'4 6.5
2017-Oct-14 15:57N 40°35' W 073°50'3 0.1
2017-Oct-13 15:06N 40°37' W 073°47'1 7.3
2017-Oct-13 14:58N 40°36' W 073°48'3 6.4
2017-Oct-13 14:29N 40°35' W 073°51'4 7.7
2017-Oct-13 14:00N 40°34' W 073°56'3 6.8
2017-Oct-13 13:30N 40°34' W 074°00'2 3.8
2017-Oct-13 12:59N 40°36' W 074°02'0 0.6
2017-Oct-13 12:29N 40°36' W 074°02'0 0.4
2017-Oct-13 11:59N 40°35' W 074°02'0 0.7
2017-Oct-13 11:26N 40°35' W 074°01'0 1.0
2017-Oct-13 10:59N 40°35' W 074°01'1 1.4
2017-Oct-13 10:28N 40°35' W 074°02'1 1.5
2017-Oct-13 09:58N 40°36' W 074°02'0 0.1
2017-Oct-13 09:29N 40°36' W 074°02'3 6.2
2017-Oct-13 09:00N 40°38' W 074°04'4 7.3
2017-Oct-13 08:29N 40°39' W 074°09'3 5.9
2017-Oct-13 08:00N 40°37' W 074°12'1 0.6
2017-Oct-13 05:56N 40°36' W 074°12'3 7.4
2017-Oct-13 05:30N 40°39' W 074°11'4 7.2
2017-Oct-13 05:00N 40°41' W 074°08'1 2.2
2017-Oct-13 04:28N 40°42' W 074°07'2 4.2
2017-Oct-13 04:00N 40°41' W 074°08'2 4.4
2017-Oct-13 03:30N 40°39' W 074°10'4 0.5
2017-Oct-12 19:27N 40°35' W 074°13'3 6.9
2017-Oct-12 19:00N 40°38' W 074°12'2 3.9
2017-Oct-12 18:30N 40°39' W 074°10'2 4.7
2017-Oct-12 18:00N 40°39' W 074°07'4 7.1
2017-Oct-12 17:30N 40°40' W 074°02'3 6.2
2017-Oct-12 17:00N 40°42' W 073°59'3 5.1
2017-Oct-12 16:30N 40°44' W 073°57'1 1.1
2017-Oct-12 15:47N 40°44' W 073°56'0 0.0
2017-Oct-12 15:17N 40°44' W 073°56'0 0.0
2017-Oct-12 14:56N 40°44' W 073°56'0 0.0
2017-Oct-12 14:28N 40°44' W 073°56'0 0.0
2017-Oct-12 13:53N 40°44' W 073°56'0 0.0
2017-Oct-12 13:20N 40°44' W 073°56'0 0.0
2017-Oct-12 12:58N 40°44' W 073°56'0 0.0
2017-Oct-12 12:23N 40°44' W 073°56'0 0.0
2017-Oct-12 11:50N 40°44' W 073°56'0 0.0
2017-Oct-12 11:25N 40°44' W 073°56'0 0.0
2017-Oct-12 10:49N 40°44' W 073°56'0 0.0
2017-Oct-12 10:19N 40°44' W 073°56'0 0.0
2017-Oct-12 09:56N 40°44' W 073°56'0 0.0
2017-Oct-12 09:26N 40°44' W 073°56'0 0.0
2017-Oct-12 08:55N 40°44' W 073°56'0 0.0
2017-Oct-12 08:20N 40°44' W 073°56'0 0.0
2017-Oct-12 07:55N 40°44' W 073°56'0 0.0
2017-Oct-12 06:31N 40°44' W 073°56'0 0.0
2017-Oct-12 04:44N 40°44' W 073°56'1 3.0
2017-Oct-12 04:30N 40°43' W 073°56'2 3.5
2017-Oct-12 04:00N 40°44' W 073°58'4 8.4
2017-Oct-12 03:30N 40°41' W 074°01'3 6.8
2017-Oct-12 03:00N 40°39' W 074°05'3 6.0
2017-Oct-12 02:29N 40°38' W 074°09'3 5.9
2017-Oct-12 02:00N 40°38' W 074°12'5 5.5
2017-Oct-12 01:03N 40°33' W 074°15'0 0.1
2017-Oct-11 22:20N 40°33' W 074°15'4 8.5
2017-Oct-11 21:50N 40°36' W 074°12'3 8.7
2017-Oct-11 21:30N 40°39' W 074°11'3 3.5
2017-Oct-11 20:39N 40°39' W 074°07'0 0.0
2017-Oct-11 20:30N 40°39' W 074°07'4 7.1
2017-Oct-11 20:00N 40°39' W 074°11'9 3.0
2017-Oct-11 16:51N 40°30' W 074°05'17 1.0
2017-Oct-11 00:00N 40°38' W 073°46'3 6.1
2017-Oct-10 23:28N 40°36' W 073°49'2 4.7
2017-Oct-10 23:00N 40°35' W 073°52'2 3.0
2017-Oct-10 22:21N 40°34' W 073°54'0 0.0
2017-Oct-10 21:54N 40°34' W 073°54'0 0.0
2017-Oct-10 21:21N 40°34' W 073°54'1 2.7
2017-Oct-10 20:58N 40°34' W 073°55'3 6.2
2017-Oct-10 20:30N 40°34' W 073°59'3 5.2
2017-Oct-10 20:00N 40°33' W 074°02'9 4.4
2017-Oct-10 17:53N 40°33' W 074°15'  

Dump ship's entire track history